createdAt,value
2023-04-02T00:00:52.819Z,84.8095
2023-04-02T00:01:54.241Z,85.0976
2023-04-02T00:02:55.730Z,84.8905
2023-04-02T00:03:57.173Z,84.6954
2023-04-02T00:04:58.598Z,84.2897
2023-04-02T00:05:59.964Z,84.3429
2023-04-02T00:07:01.327Z,84.6286
2023-04-02T00:08:02.740Z,83.9531
2023-04-02T00:09:04.116Z,83.5011
2023-04-02T00:10:05.549Z,83.2048
2023-04-02T00:11:06.958Z,83.6141
2023-04-02T00:12:08.339Z,84.4484
2023-04-02T00:13:09.735Z,84.2185
2023-04-02T00:14:11.186Z,84.2331
2023-04-02T00:15:12.635Z,84.2696
2023-04-02T00:16:14.018Z,84.0799
2023-04-02T00:17:15.437Z,83.9993
2023-04-02T00:18:16.902Z,84.5507
2023-04-02T00:19:18.279Z,84.4863
2023-04-02T00:20:19.628Z,84.2719
2023-04-02T00:21:20.970Z,83.9030
2023-04-02T00:22:22.377Z,83.6648
2023-04-02T00:23:23.770Z,83.6756
2023-04-02T00:24:25.199Z,84.1748
2023-04-02T00:25:26.576Z,84.3905
2023-04-02T00:26:28.037Z,84.5064
2023-04-02T00:27:29.363Z,84.8169
2023-04-02T00:28:30.749Z,85.0311
2023-04-02T00:29:32.133Z,85.4763
2023-04-02T00:30:33.508Z,85.6877
2023-04-02T00:31:34.900Z,86.3443
2023-04-02T00:32:36.307Z,86.5680
2023-04-02T00:33:37.742Z,86.9682
2023-04-02T00:34:39.204Z,87.3689
2023-04-02T00:35:40.660Z,87.7797
2023-04-02T00:36:42.171Z,87.5670
2023-04-02T00:37:43.571Z,88.0074
2023-04-02T00:38:46.665Z,87.9479
2023-04-02T00:39:46.425Z,87.8850
2023-04-02T00:40:47.774Z,88.0289
2023-04-02T00:41:49.197Z,87.9499
2023-04-02T00:42:50.607Z,87.8311
2023-04-02T00:43:52.051Z,88.1235
2023-04-02T00:44:53.504Z,88.3665
2023-04-02T00:45:54.923Z,88.2987
2023-04-02T00:46:56.354Z,88.4738
2023-04-02T00:47:57.854Z,88.3590
2023-04-02T00:48:59.241Z,88.4252
2023-04-02T00:50:00.717Z,88.5100
2023-04-02T00:51:02.093Z,88.6628
2023-04-02T00:52:03.531Z,88.3670
2023-04-02T00:53:04.920Z,88.5066
2023-04-02T00:54:06.378Z,88.7759
2023-04-02T00:55:07.793Z,88.7578
2023-04-02T00:56:09.280Z,88.9695
2023-04-02T00:57:10.653Z,88.9916
2023-04-02T00:58:12.131Z,88.9369
2023-04-02T00:59:13.495Z,89.0687
2023-04-02T01:00:14.979Z,88.5963
2023-04-02T01:01:16.395Z,88.7730
2023-04-02T01:02:18.070Z,88.8659
2023-04-02T01:03:19.666Z,89.1540
2023-04-02T01:04:21.515Z,88.7865
2023-04-02T01:05:23.068Z,88.8353
2023-04-02T01:06:24.471Z,88.9952
2023-04-02T01:07:26.112Z,88.5993
2023-04-02T01:08:27.534Z,88.4594
2023-04-02T01:09:28.882Z,88.4977
2023-04-02T01:10:30.343Z,88.5676
2023-04-02T01:11:31.879Z,88.3744
2023-04-02T01:12:33.381Z,88.3643
2023-04-02T01:13:34.782Z,88.0444
2023-04-02T01:14:36.204Z,88.5579
2023-04-02T01:15:38.110Z,88.3937
2023-04-02T01:16:39.782Z,88.3773
2023-04-02T01:17:41.182Z,88.5317
2023-04-02T01:18:42.583Z,88.9678
2023-04-02T01:19:43.938Z,89.0743
2023-04-02T01:20:45.384Z,88.6126
2023-04-02T01:21:46.796Z,88.6073
2023-04-02T01:22:48.256Z,87.9754
2023-04-02T01:23:49.605Z,87.9249
2023-04-02T01:24:50.993Z,88.2103
2023-04-02T01:25:52.449Z,88.1505
2023-04-02T01:26:53.777Z,87.6945
2023-04-02T01:27:55.182Z,87.9688
2023-04-02T01:28:56.575Z,87.7816
2023-04-02T01:29:57.955Z,87.6388
2023-04-02T01:30:59.346Z,87.6181
2023-04-02T01:32:00.791Z,87.3622
2023-04-02T01:33:02.255Z,87.5651
2023-04-02T01:34:03.674Z,87.5997
2023-04-02T01:35:05.039Z,87.6716
2023-04-02T01:36:06.419Z,87.7885
2023-04-02T01:37:07.813Z,87.4586
2023-04-02T01:38:09.205Z,87.6803
2023-04-02T01:39:10.628Z,87.8452
2023-04-02T01:40:12.023Z,88.0387
2023-04-02T01:41:13.407Z,88.0269
2023-04-02T01:42:14.824Z,88.0497
2023-04-02T01:43:16.195Z,87.7902
2023-04-02T01:44:17.553Z,87.6377
2023-04-02T01:45:18.955Z,87.7500
2023-04-02T01:46:20.435Z,87.6727
2023-04-02T01:47:21.768Z,87.5743
2023-04-02T01:48:23.208Z,87.1797
2023-04-02T01:49:24.573Z,87.0705
2023-04-02T01:50:25.977Z,87.0488
2023-04-02T01:51:27.394Z,86.3892
2023-04-02T01:52:28.882Z,86.5337
2023-04-02T01:53:30.222Z,86.8653
2023-04-02T01:54:31.665Z,86.5248
2023-04-02T01:55:33.328Z,86.4704
2023-04-02T01:56:35.179Z,86.5606
2023-04-02T01:57:36.572Z,86.3208
2023-04-02T01:58:37.950Z,85.8879
2023-04-02T01:59:39.369Z,85.7098
2023-04-02T02:00:40.902Z,85.8154
2023-04-02T02:01:42.467Z,86.2494
2023-04-02T02:02:43.918Z,86.7760
2023-04-02T02:03:45.400Z,86.5143
2023-04-02T02:04:46.853Z,86.1288
2023-04-02T02:05:48.218Z,86.1049
2023-04-02T02:06:49.632Z,86.4352
2023-04-02T02:07:51.039Z,86.5358
2023-04-02T02:08:52.440Z,86.7943
2023-04-02T02:09:53.787Z,86.7294
2023-04-02T02:10:55.194Z,86.2070
2023-04-02T02:11:56.564Z,86.5229
2023-04-02T02:12:57.998Z,86.5758
2023-04-02T02:13:59.356Z,86.7734
2023-04-02T02:15:00.814Z,86.8433
2023-04-02T02:16:02.189Z,87.0141
2023-04-02T02:17:03.575Z,86.7931
2023-04-02T02:18:04.927Z,86.2521
2023-04-02T02:19:06.322Z,85.9326
2023-04-02T02:20:07.741Z,86.0488
2023-04-02T02:21:09.114Z,86.5304
2023-04-02T02:22:10.547Z,86.5075
2023-04-02T02:23:11.936Z,86.3517
2023-04-02T02:24:13.414Z,86.8297
2023-04-02T02:25:14.827Z,86.8534
2023-04-02T02:26:16.238Z,86.9317
2023-04-02T02:27:17.587Z,86.2878
2023-04-02T02:28:19.002Z,85.6839
2023-04-02T02:29:20.384Z,85.8407
2023-04-02T02:30:21.770Z,86.6713
2023-04-02T02:31:23.270Z,86.5823
2023-04-02T02:32:24.701Z,85.5762
2023-04-02T02:33:26.079Z,85.1328
2023-04-02T02:34:27.469Z,85.0910
2023-04-02T02:35:28.983Z,85.3821
2023-04-02T02:36:30.364Z,85.7096
2023-04-02T02:37:31.741Z,85.8351
2023-04-02T02:38:33.147Z,85.5648
2023-04-02T02:39:34.635Z,85.5340
2023-04-02T02:40:36.049Z,85.0379
2023-04-02T02:41:37.441Z,85.1810
2023-04-02T02:42:38.832Z,85.4505
2023-04-02T02:43:40.272Z,85.2309
2023-04-02T02:44:41.670Z,84.7037
2023-04-02T02:45:43.071Z,84.9185
2023-04-02T02:46:44.437Z,85.0669
2023-04-02T02:47:45.885Z,85.0614
2023-04-02T02:48:47.217Z,85.3225
2023-04-02T02:49:48.632Z,85.1161
2023-04-02T02:50:50.060Z,85.1792
2023-04-02T02:51:51.441Z,85.4701
2023-04-02T02:52:52.849Z,85.4798
2023-04-02T02:53:54.249Z,85.5293
2023-04-02T02:54:55.917Z,85.4954
2023-04-02T02:55:57.331Z,85.3717
2023-04-02T02:56:58.716Z,85.1710
2023-04-02T02:58:00.142Z,85.5049
2023-04-02T02:59:01.516Z,85.3453
2023-04-02T03:00:02.962Z,85.3350
2023-04-02T03:01:04.402Z,85.1575
2023-04-02T03:02:05.762Z,85.2454
2023-04-02T03:03:07.238Z,84.6588
2023-04-02T03:04:09.000Z,84.6393
2023-04-02T03:05:10.674Z,84.6553
2023-04-02T03:06:12.100Z,84.3542
2023-04-02T03:07:13.485Z,84.5488
2023-04-02T03:08:14.975Z,84.7394
2023-04-02T03:09:16.398Z,84.8204
2023-04-02T03:10:17.816Z,84.4995
2023-04-02T03:11:19.277Z,84.4888
2023-04-02T03:12:20.685Z,84.7390
2023-04-02T03:13:22.066Z,84.5805
2023-04-02T03:14:23.446Z,84.4874
2023-04-02T03:15:24.798Z,84.8609
2023-04-02T03:16:26.297Z,84.8574
2023-04-02T03:17:27.732Z,85.2858
2023-04-02T03:18:29.155Z,85.3825
2023-04-02T03:19:30.566Z,85.3521
2023-04-02T03:20:31.951Z,84.9839
2023-04-02T03:21:33.399Z,84.4822
2023-04-02T03:22:34.776Z,84.4451
2023-04-02T03:23:36.164Z,84.5435
2023-04-02T03:24:37.524Z,84.7470
2023-04-02T03:25:38.979Z,84.7138
2023-04-02T03:26:40.308Z,84.7274
2023-04-02T03:27:41.755Z,84.6705
2023-04-02T03:28:43.135Z,84.7948
2023-04-02T03:29:44.575Z,84.8525
2023-04-02T03:30:46.028Z,84.7034
2023-04-02T03:31:47.585Z,84.6403
2023-04-02T03:32:49.112Z,84.8978
2023-04-02T03:33:50.596Z,84.5484
2023-04-02T03:34:52.059Z,84.4607
2023-04-02T03:35:53.611Z,84.2775
2023-04-02T03:36:55.065Z,84.3024
2023-04-02T03:37:56.547Z,84.4456
2023-04-02T03:38:58.105Z,84.3585
2023-04-02T03:39:59.594Z,84.4143
2023-04-02T03:41:01.173Z,84.3341
2023-04-02T03:42:02.553Z,84.6165
2023-04-02T03:43:04.015Z,84.7909
2023-04-02T03:44:05.514Z,84.6181
2023-04-02T03:45:07.156Z,84.8697
2023-04-02T03:46:08.926Z,84.2004
2023-04-02T03:47:10.381Z,84.4619
2023-04-02T03:48:11.841Z,84.9136
2023-04-02T03:49:13.324Z,84.9184
2023-04-02T03:50:14.796Z,85.2926
2023-04-02T03:51:16.307Z,84.9509
2023-04-02T03:52:17.779Z,84.9273
2023-04-02T03:53:19.242Z,85.0662
2023-04-02T03:54:20.720Z,85.3544
2023-04-02T03:55:22.253Z,85.3067
2023-04-02T03:56:23.636Z,85.5074
2023-04-02T03:57:25.174Z,85.4877
2023-04-02T03:58:26.721Z,85.4874
2023-04-02T03:59:28.283Z,85.4314
2023-04-02T04:00:29.703Z,85.6962
2023-04-02T04:01:31.209Z,85.5527
2023-04-02T04:02:32.652Z,85.6611
2023-04-02T04:03:34.181Z,85.6026
2023-04-02T04:04:35.730Z,85.4136
2023-04-02T04:05:37.456Z,85.1928
2023-04-02T04:06:39.097Z,85.3306
2023-04-02T04:07:40.520Z,85.2984
2023-04-02T04:08:41.949Z,82.8760
2023-04-02T04:09:43.413Z,81.0488
2023-04-02T04:10:44.890Z,81.4137
2023-04-02T04:11:46.346Z,82.1169
2023-04-02T04:12:47.915Z,82.1989
2023-04-02T04:13:49.384Z,81.9640
2023-04-02T04:14:50.851Z,81.6652
2023-04-02T04:15:52.275Z,81.8380
2023-04-02T04:16:54.003Z,82.0028
2023-04-02T04:17:55.950Z,82.2203
2023-04-02T04:18:57.396Z,82.2401
2023-04-02T04:19:58.856Z,81.7963
2023-04-02T04:21:00.396Z,81.7152
2023-04-02T04:22:01.850Z,81.8575
2023-04-02T04:23:03.268Z,81.5301
2023-04-02T04:24:04.863Z,81.9547
2023-04-02T04:25:06.285Z,82.1779
2023-04-02T04:26:07.731Z,82.3100
2023-04-02T04:27:09.182Z,82.1181
2023-04-02T04:28:10.653Z,81.8507
2023-04-02T04:29:12.070Z,82.0290
2023-04-02T04:30:13.641Z,81.9773
2023-04-02T04:31:15.103Z,82.2829
2023-04-02T04:32:16.609Z,82.5115
2023-04-02T04:33:18.246Z,82.9068
2023-04-02T04:34:19.697Z,83.0752
2023-04-02T04:35:21.144Z,82.7270
2023-04-02T04:36:22.586Z,82.5512
2023-04-02T04:37:24.077Z,82.4917
2023-04-02T04:38:25.562Z,82.6924
2023-04-02T04:39:27.154Z,82.3202
2023-04-02T04:40:28.602Z,82.1483
2023-04-02T04:41:30.049Z,82.2318
2023-04-02T04:42:31.491Z,82.6961
2023-04-02T04:43:32.982Z,82.6005
2023-04-02T04:44:34.445Z,82.4656
2023-04-02T04:45:36.221Z,82.1033
2023-04-02T04:46:37.882Z,82.1466
2023-04-02T04:47:39.373Z,82.0688
2023-04-02T04:48:40.813Z,81.6580
2023-04-02T04:49:42.266Z,81.8618
2023-04-02T04:50:43.705Z,82.1340
2023-04-02T04:51:45.179Z,81.9380
2023-04-02T04:52:46.632Z,81.4418
2023-04-02T04:53:48.185Z,81.8556
2023-04-02T04:54:49.663Z,81.7686
2023-04-02T04:55:51.104Z,82.0547
2023-04-02T04:56:52.606Z,82.2254
2023-04-02T04:57:54.040Z,82.2546
2023-04-02T04:58:55.454Z,81.7092
2023-04-02T04:59:56.878Z,81.3086
2023-04-02T05:00:58.321Z,81.7252
2023-04-02T05:01:59.793Z,81.7736
2023-04-02T05:03:01.373Z,81.7855
2023-04-02T05:04:02.791Z,82.1728
2023-04-02T05:05:04.317Z,82.3987
2023-04-02T05:06:05.764Z,82.5206
2023-04-02T05:07:07.235Z,82.0534
2023-04-02T05:08:08.664Z,82.3197
2023-04-02T05:09:10.080Z,82.5137
2023-04-02T05:10:11.563Z,81.6311
2023-04-02T05:11:13.045Z,81.4365
2023-04-02T05:12:14.493Z,81.9792
2023-04-02T05:13:15.913Z,82.0493
2023-04-02T05:14:17.416Z,81.9838
2023-04-02T05:15:18.867Z,82.0482
2023-04-02T05:16:20.383Z,82.1916
2023-04-02T05:17:21.870Z,82.2045
2023-04-02T05:18:23.372Z,81.8341
2023-04-02T05:19:24.824Z,81.9584
2023-04-02T05:20:26.263Z,81.9957
2023-04-02T05:21:27.669Z,81.6980
2023-04-02T05:22:29.109Z,82.1038
2023-04-02T05:23:30.614Z,81.9169
2023-04-02T05:24:31.998Z,81.9212
2023-04-02T05:25:33.669Z,81.7897
2023-04-02T05:26:35.183Z,82.0225
2023-04-02T05:27:36.681Z,82.1338
2023-04-02T05:28:38.132Z,82.2895
2023-04-02T05:29:39.647Z,81.7414
2023-04-02T05:30:41.251Z,81.1475
2023-04-02T05:31:42.795Z,80.7243
2023-04-02T05:32:44.367Z,80.9511
2023-04-02T05:33:45.866Z,81.1326
2023-04-02T05:34:47.343Z,81.4937
2023-04-02T05:35:48.867Z,81.7368
2023-04-02T05:36:50.356Z,81.5752
2023-04-02T05:37:51.809Z,81.0654
2023-04-02T05:38:53.277Z,81.2786
2023-04-02T05:39:54.792Z,81.1788
2023-04-02T05:40:56.275Z,81.2863
2023-04-02T05:41:57.761Z,81.3744
2023-04-02T05:42:59.197Z,81.3095
2023-04-02T05:44:00.665Z,80.9744
2023-04-02T05:45:02.134Z,81.0964
2023-04-02T05:46:03.804Z,81.3978
2023-04-02T05:47:05.244Z,81.3893
2023-04-02T05:48:06.748Z,81.3676
2023-04-02T05:49:08.183Z,81.0832
2023-04-02T05:50:09.663Z,81.1591
2023-04-02T05:51:11.094Z,81.2531
2023-04-02T05:52:12.556Z,81.5189
2023-04-02T05:53:14.095Z,81.4422
2023-04-02T05:54:15.563Z,81.3104
2023-04-02T05:55:17.386Z,81.2142
2023-04-02T05:56:18.813Z,81.1911
2023-04-02T05:57:20.270Z,81.1463
2023-04-02T05:58:35.573Z,81.1718
2023-04-02T05:59:21.738Z,81.2228
2023-04-02T06:00:23.180Z,81.1789
2023-04-02T06:01:24.620Z,81.0961
2023-04-02T06:02:26.086Z,80.8664
2023-04-02T06:03:27.745Z,80.7947
2023-04-02T06:04:29.223Z,80.7995
2023-04-02T06:05:30.641Z,81.0072
2023-04-02T06:06:32.075Z,81.2071
2023-04-02T06:07:33.516Z,80.9479
2023-04-02T06:08:35.057Z,81.1160
2023-04-02T06:09:36.519Z,81.0451
2023-04-02T06:10:37.972Z,81.0882
2023-04-02T06:11:39.417Z,81.0345
2023-04-02T06:12:40.922Z,81.1486
2023-04-02T06:13:42.406Z,80.9193
2023-04-02T06:14:43.935Z,80.8115
2023-04-02T06:15:47.247Z,80.3917
2023-04-02T06:16:46.801Z,80.7294
2023-04-02T06:17:48.301Z,80.8111
2023-04-02T06:18:49.789Z,81.0369
2023-04-02T06:19:51.251Z,81.2561
2023-04-02T06:20:52.720Z,80.7952
2023-04-02T06:21:54.124Z,80.5018
2023-04-02T06:22:55.623Z,80.5624
2023-04-02T06:23:57.102Z,80.4235
2023-04-02T06:24:58.543Z,80.3099
2023-04-02T06:26:00.013Z,79.9648
2023-04-02T06:27:01.491Z,79.9733
2023-04-02T06:28:02.982Z,79.7577
2023-04-02T06:29:04.465Z,79.8839
2023-04-02T06:30:05.917Z,80.0383
2023-04-02T06:31:07.552Z,79.6088
2023-04-02T06:32:08.992Z,79.6944
2023-04-02T06:33:10.521Z,79.8848
2023-04-02T06:34:12.000Z,80.0471
2023-04-02T06:35:13.442Z,79.9830
2023-04-02T06:36:14.878Z,80.3159
2023-04-02T06:37:16.252Z,80.0059
2023-04-02T06:38:17.745Z,80.1374
2023-04-02T06:39:19.184Z,80.1700
2023-04-02T06:40:20.640Z,79.7605
2023-04-02T06:41:22.861Z,79.3104
2023-04-02T06:42:24.331Z,79.8456
2023-04-02T06:43:25.780Z,80.0399
2023-04-02T06:44:27.254Z,79.9995
2023-04-02T06:45:28.681Z,79.6187
2023-04-02T06:46:30.172Z,78.9366
2023-04-02T06:47:31.704Z,79.2576
2023-04-02T06:48:33.280Z,79.5093
2023-04-02T06:49:34.701Z,79.4090
2023-04-02T06:50:36.168Z,79.1899
2023-04-02T06:51:37.609Z,79.1067
2023-04-02T06:52:39.072Z,79.3154
2023-04-02T06:53:40.517Z,79.2833
2023-04-02T06:54:41.948Z,79.1487
2023-04-02T06:55:43.422Z,79.4100
2023-04-02T06:56:44.779Z,79.4064
2023-04-02T06:57:46.244Z,79.5959
2023-04-02T06:58:47.709Z,79.2859
2023-04-02T06:59:49.132Z,78.8713
2023-04-02T07:00:50.513Z,78.9751
2023-04-02T07:01:51.998Z,78.5342
2023-04-02T07:02:55.152Z,78.4857
2023-04-02T07:03:58.447Z,78.7984
2023-04-02T07:05:00.864Z,77.7163
2023-04-02T07:06:02.273Z,77.5496
2023-04-02T07:07:03.734Z,77.4710
2023-04-02T07:08:05.208Z,77.7191
2023-04-02T07:09:07.641Z,77.1992
2023-04-02T07:10:09.172Z,77.3314
2023-04-02T07:11:10.649Z,77.3869
2023-04-02T07:12:12.062Z,77.7343
2023-04-02T07:13:13.533Z,77.9478
2023-04-02T07:14:15.002Z,77.2754
2023-04-02T07:15:16.586Z,77.4561
2023-04-02T07:16:18.093Z,77.7644
2023-04-02T07:17:19.640Z,77.3266
2023-04-02T07:18:21.198Z,77.2537
2023-04-02T07:19:22.769Z,77.4658
2023-04-02T07:20:24.238Z,77.3645
2023-04-02T07:21:25.683Z,78.1580
2023-04-02T07:22:27.091Z,77.5603
2023-04-02T07:23:28.560Z,77.5875
2023-04-02T07:24:30.030Z,77.3266
2023-04-02T07:25:31.487Z,76.7457
2023-04-02T07:26:32.932Z,76.4008
2023-04-02T07:27:34.379Z,76.6702
2023-04-02T07:28:35.859Z,76.3729
2023-04-02T07:29:37.271Z,76.4798
2023-04-02T07:30:38.688Z,75.8163
2023-04-02T07:31:40.230Z,75.6119
2023-04-02T07:32:41.674Z,75.7823
2023-04-02T07:33:43.081Z,76.2957
2023-04-02T07:34:44.485Z,76.4887
2023-04-02T07:35:46.028Z,76.2886
2023-04-02T07:36:47.441Z,75.6801
2023-04-02T07:37:48.894Z,75.3749
2023-04-02T07:38:50.303Z,75.9265
2023-04-02T07:39:51.809Z,75.7305
2023-04-02T07:40:53.238Z,75.2073
2023-04-02T07:41:54.568Z,74.2856
2023-04-02T07:42:56.038Z,74.5650
2023-04-02T07:43:57.524Z,74.8357
2023-04-02T07:44:58.926Z,74.8544
2023-04-02T07:46:00.339Z,75.2002
2023-04-02T07:47:01.834Z,75.4421
2023-04-02T07:48:03.495Z,75.6095
2023-04-02T07:49:05.010Z,74.8885
2023-04-02T07:50:06.491Z,74.0810
2023-04-02T07:51:07.919Z,73.7957
2023-04-02T07:52:09.373Z,73.3554
2023-04-02T07:53:10.786Z,73.5974
2023-04-02T07:54:12.254Z,73.5963
2023-04-02T07:55:13.672Z,72.5175
2023-04-02T07:56:15.104Z,71.5837
2023-04-02T07:57:16.556Z,71.1201
2023-04-02T07:58:17.975Z,71.6679
2023-04-02T07:59:19.442Z,72.1591
2023-04-02T08:00:20.860Z,71.8167
2023-04-02T08:01:22.279Z,72.5427
2023-04-02T08:02:23.703Z,73.1429
2023-04-02T08:03:25.318Z,73.6900
2023-04-02T08:04:26.845Z,73.8023
2023-04-02T08:05:28.331Z,74.0704
2023-04-02T08:06:29.776Z,74.4258
2023-04-02T08:07:31.229Z,73.6322
2023-04-02T08:08:32.685Z,73.1774
2023-04-02T08:09:34.123Z,72.7989
2023-04-02T08:10:35.639Z,73.9380
2023-04-02T08:11:37.154Z,73.1989
2023-04-02T08:12:38.678Z,72.8186
2023-04-02T08:13:40.131Z,73.3368
2023-04-02T08:14:41.639Z,72.1619
2023-04-02T08:15:43.028Z,73.3487
2023-04-02T08:16:44.586Z,74.3357
2023-04-02T08:17:46.029Z,74.7364
2023-04-02T08:18:47.473Z,73.8473
2023-04-02T08:19:55.130Z,73.0177
2023-04-02T08:20:49.011Z,73.1032
2023-04-02T08:21:50.466Z,73.1391
2023-04-02T08:22:51.945Z,73.0228
2023-04-02T08:23:53.371Z,73.1369
2023-04-02T08:24:54.912Z,74.3609
2023-04-02T08:25:56.366Z,74.9233
2023-04-02T08:26:57.847Z,75.1239
2023-04-02T08:27:59.292Z,75.2230
2023-04-02T08:29:00.853Z,74.3567
2023-04-02T08:30:02.316Z,74.1409
2023-04-02T08:31:03.853Z,73.4197
2023-04-02T08:32:05.276Z,73.7080
2023-04-02T08:33:06.768Z,74.0937
2023-04-02T08:34:08.195Z,74.5537
2023-04-02T08:35:09.731Z,74.5570
2023-04-02T08:36:11.304Z,74.3431
2023-04-02T08:37:12.733Z,73.7448
2023-04-02T08:38:14.140Z,73.7094
2023-04-02T08:39:15.586Z,74.3111
2023-04-02T08:40:17.023Z,74.0103
2023-04-02T08:41:18.571Z,73.9753
2023-04-02T08:42:19.984Z,73.2497
2023-04-02T08:43:23.109Z,73.8394
2023-04-02T08:44:22.973Z,73.5499
2023-04-02T08:45:25.595Z,73.3021
2023-04-02T08:46:24.918Z,73.2085
2023-04-02T08:47:26.420Z,72.9107
2023-04-02T08:48:27.841Z,72.8518
2023-04-02T08:49:29.322Z,73.3046
2023-04-02T08:50:30.861Z,73.6516
2023-04-02T08:51:32.302Z,73.6897
2023-04-02T08:52:33.740Z,73.3651
2023-04-02T08:53:35.206Z,73.3391
2023-04-02T08:54:36.676Z,73.2904
2023-04-02T08:55:38.240Z,73.8926
2023-04-02T08:56:39.737Z,73.3386
2023-04-02T08:57:41.182Z,72.6857
2023-04-02T08:58:42.610Z,72.6567
2023-04-02T08:59:44.107Z,72.5754
2023-04-02T09:00:45.562Z,72.5814
2023-04-02T09:01:47.031Z,71.7571
2023-04-02T09:02:48.480Z,71.5317
2023-04-02T09:03:49.916Z,71.8589
2023-04-02T09:04:51.439Z,71.8383
2023-04-02T09:05:52.933Z,71.9543
2023-04-02T09:06:54.369Z,72.6567
2023-04-02T09:07:55.811Z,73.0569
2023-04-02T09:08:57.267Z,73.1513
2023-04-02T09:09:58.836Z,73.1861
2023-04-02T09:11:00.306Z,72.8711
2023-04-02T09:12:01.803Z,72.1983
2023-04-02T09:13:03.198Z,72.2576
2023-04-02T09:14:04.747Z,72.3385
2023-04-02T09:15:06.214Z,71.5724
2023-04-02T09:16:07.792Z,71.4390
2023-04-02T09:17:09.251Z,71.9577
2023-04-02T09:18:10.741Z,71.3309
2023-04-02T09:19:12.166Z,71.8816
2023-04-02T09:20:13.661Z,71.2781
2023-04-02T09:21:15.112Z,71.2687
2023-04-02T09:22:16.593Z,70.9495
2023-04-02T09:23:18.044Z,70.3984
2023-04-02T09:24:19.523Z,70.2461
2023-04-02T09:25:21.021Z,70.0596
2023-04-02T09:26:22.460Z,70.3135
2023-04-02T09:27:23.893Z,70.7425
2023-04-02T09:28:25.341Z,70.3628
2023-04-02T09:29:26.769Z,70.3149
2023-04-02T09:30:28.257Z,70.5334
2023-04-02T09:31:29.705Z,70.8288
2023-04-02T09:32:31.165Z,69.8283
2023-04-02T09:33:32.536Z,69.4560
2023-04-02T09:34:34.159Z,70.7676
2023-04-02T09:35:35.597Z,70.4390
2023-04-02T09:36:37.051Z,69.8959
2023-04-02T09:37:38.464Z,69.2989
2023-04-02T09:38:39.955Z,69.6972
2023-04-02T09:39:41.430Z,69.0538
2023-04-02T09:40:43.097Z,70.4878
2023-04-02T09:41:48.186Z,70.8778
2023-04-02T09:42:44.590Z,71.3611
2023-04-02T09:43:46.046Z,71.1222
2023-04-02T09:44:47.516Z,69.8152
2023-04-02T09:45:49.282Z,69.1117
2023-04-02T09:46:50.764Z,69.3792
2023-04-02T09:47:52.240Z,69.1250
2023-04-02T09:48:53.703Z,69.3899
2023-04-02T09:49:55.149Z,69.9202
2023-04-02T09:50:56.639Z,69.4777
2023-04-02T09:51:58.732Z,69.3417
2023-04-02T09:53:00.212Z,69.0383
2023-04-02T09:54:01.681Z,68.4595
2023-04-02T09:55:03.137Z,68.6919
2023-04-02T09:56:04.617Z,69.0311
2023-04-02T09:57:06.120Z,68.8742
2023-04-02T09:58:07.575Z,69.0226
2023-04-02T09:59:09.025Z,69.0147
2023-04-02T10:00:18.371Z,68.9721
2023-04-02T10:01:10.586Z,68.8107
2023-04-02T10:02:12.024Z,68.6125
2023-04-02T10:03:13.478Z,67.8300
2023-04-02T10:04:14.951Z,67.1360
2023-04-02T10:05:23.549Z,67.3781
2023-04-02T10:06:15.550Z,66.8308
2023-04-02T10:07:16.970Z,66.7679
2023-04-02T10:08:18.446Z,66.9695
2023-04-02T10:09:19.915Z,67.0308
2023-04-02T10:10:21.406Z,66.3294
2023-04-02T10:11:22.973Z,66.6908
2023-04-02T10:12:24.930Z,66.8142
2023-04-02T10:13:26.364Z,66.7677
2023-04-02T10:14:27.829Z,66.0019
2023-04-02T10:15:29.222Z,65.5499
2023-04-02T10:16:30.708Z,65.1981
2023-04-02T10:17:32.178Z,64.6505
2023-04-02T10:18:33.722Z,65.5458
2023-04-02T10:19:35.179Z,65.3974
2023-04-02T10:20:48.597Z,65.6820
2023-04-02T10:21:36.653Z,65.8957
2023-04-02T10:22:38.117Z,65.7461
2023-04-02T10:23:39.591Z,65.9801
2023-04-02T10:24:41.052Z,66.1278
2023-04-02T10:25:42.508Z,64.8723
2023-04-02T10:26:43.990Z,64.0843
2023-04-02T10:27:45.402Z,64.4238
2023-04-02T10:28:46.895Z,65.1483
2023-04-02T10:29:48.331Z,64.5344
2023-04-02T10:30:49.814Z,64.2563
2023-04-02T10:31:51.231Z,64.3512
2023-04-02T10:32:52.728Z,64.2139
2023-04-02T10:33:54.189Z,64.4299
2023-04-02T10:34:55.622Z,63.4902
2023-04-02T10:35:57.123Z,64.6187
2023-04-02T10:36:58.541Z,64.3988
2023-04-02T10:37:59.994Z,64.4180
2023-04-02T10:39:01.414Z,64.2457
2023-04-02T10:40:02.845Z,64.2977
2023-04-02T10:41:04.324Z,64.7553
2023-04-02T10:42:05.723Z,65.4882
2023-04-02T10:43:07.181Z,65.4859
2023-04-02T10:44:18.998Z,66.2529
2023-04-02T10:45:08.707Z,66.2739
2023-04-02T10:46:10.205Z,64.7224
2023-04-02T10:47:11.737Z,63.8956
2023-04-02T10:48:13.192Z,64.4410
2023-04-02T10:49:14.672Z,63.7387
2023-04-02T10:50:16.100Z,63.0651
2023-04-02T10:51:17.596Z,63.0861
2023-04-02T10:52:19.038Z,63.8171
2023-04-02T10:53:20.485Z,64.0490
2023-04-02T10:54:21.899Z,62.5582
2023-04-02T10:55:23.366Z,62.5975
2023-04-02T10:56:24.832Z,61.6102
2023-04-02T10:57:26.304Z,61.3361
2023-04-02T10:58:27.739Z,62.3024
2023-04-02T10:59:29.194Z,61.0504
2023-04-02T11:00:30.655Z,60.6272
2023-04-02T11:01:32.156Z,60.6467
2023-04-02T11:02:33.594Z,60.7110
2023-04-02T11:03:35.197Z,60.8401
2023-04-02T11:04:36.675Z,61.2027
2023-04-02T11:05:38.158Z,60.4107
2023-04-02T11:06:39.586Z,60.7632
2023-04-02T11:07:41.021Z,61.3458
2023-04-02T11:08:42.417Z,60.5875
2023-04-02T11:09:43.896Z,60.4520
2023-04-02T11:10:45.343Z,62.0890
2023-04-02T11:11:46.789Z,62.0207
2023-04-02T11:12:48.199Z,61.4174
2023-04-02T11:13:49.657Z,61.7739
2023-04-02T11:14:51.114Z,61.1138
2023-04-02T11:15:52.579Z,61.6756
2023-04-02T11:16:54.038Z,59.5771
2023-04-02T11:17:55.513Z,59.8699
2023-04-02T11:18:56.954Z,59.1653
2023-04-02T11:19:58.377Z,59.9055
2023-04-02T11:20:59.834Z,58.7879
2023-04-02T11:22:03.113Z,60.6023
2023-04-02T11:23:01.818Z,60.0979
2023-04-02T11:24:03.218Z,60.2932
2023-04-02T11:25:04.672Z,60.2921
2023-04-02T11:26:06.115Z,59.8228
2023-04-02T11:27:07.650Z,59.3614
2023-04-02T11:28:09.073Z,60.2833
2023-04-02T11:29:10.532Z,59.3996
2023-04-02T11:30:11.972Z,60.0205
2023-04-02T11:31:13.406Z,60.1960
2023-04-02T11:32:14.818Z,60.4094
2023-04-02T11:33:18.692Z,58.8284
2023-04-02T11:34:17.554Z,58.7675
2023-04-02T11:35:19.012Z,58.8989
2023-04-02T11:36:20.420Z,56.7412
2023-04-02T11:37:21.911Z,52.8669
2023-04-02T11:38:23.294Z,50.3326
2023-04-02T11:39:24.726Z,49.3389
2023-04-02T11:40:26.154Z,49.3217
2023-04-02T11:41:27.576Z,50.2288
2023-04-02T11:42:29.023Z,51.8940
2023-04-02T11:43:30.455Z,51.2963
2023-04-02T11:44:31.838Z,48.8256
2023-04-02T11:45:40.167Z,44.9055
2023-04-02T11:46:33.221Z,48.7454
2023-04-02T11:47:34.660Z,52.9292
2023-04-02T11:48:36.273Z,54.0061
2023-04-02T11:49:37.788Z,55.2687
2023-04-02T11:50:38.255Z,55.3677
2023-04-02T11:51:39.762Z,54.3297
2023-04-02T11:52:41.272Z,55.9578
2023-04-02T11:53:42.649Z,52.3894
2023-04-02T11:54:44.074Z,54.7484
2023-04-02T11:55:45.418Z,54.2474
2023-04-02T11:56:46.793Z,57.3277
2023-04-02T11:57:48.176Z,57.0684
2023-04-02T11:58:49.527Z,58.1667
2023-04-02T11:59:50.863Z,59.7827
2023-04-02T12:00:52.267Z,57.5396
2023-04-02T12:01:53.633Z,55.1995
2023-04-02T12:02:55.016Z,54.3794
2023-04-02T12:03:56.396Z,56.7902
2023-04-02T12:04:57.721Z,58.1418
2023-04-02T12:05:59.082Z,58.6250
2023-04-02T12:07:00.463Z,59.4905
2023-04-02T12:08:01.830Z,60.0770
2023-04-02T12:09:03.271Z,59.6082
2023-04-02T12:10:04.639Z,59.4304
2023-04-02T12:11:06.016Z,59.6752
2023-04-02T12:12:07.398Z,59.3288
2023-04-02T12:13:08.795Z,59.3035
2023-04-02T12:14:10.177Z,59.7168
2023-04-02T12:15:10.165Z,60.1454
2023-04-02T12:16:11.558Z,61.8686
2023-04-02T12:17:13.091Z,60.3110
2023-04-02T12:18:14.583Z,60.5798
2023-04-02T12:19:15.968Z,60.3217
2023-04-02T12:20:17.386Z,61.1465
2023-04-02T12:21:18.795Z,60.3695
2023-04-02T12:22:20.344Z,59.6512
2023-04-02T12:23:21.745Z,59.8851